Time;durP1;ratioP1;P1;durP2;ratioP2;P2;SDS_P1;SDS_P2;PMS_P1;PMS_P2;Temp;Humidity;BMP_temperature;BMP_pressure;BME280_temperature;BME280_humidity;BME280_pressure;Samples;Min_cycle;Max_cycle;Signal;HPM_P1;HPM_P2
2022/12/08 00:02:08;;;;;;;11.60;10.07;;;;;5.00;98568.00;;;;16813079;28;20323;-47
2022/12/08 00:10:12;;;;;;;10.20;8.80;;;;;5.20;98556.00;;;;16793567;28;20201;-48
2022/12/08 00:18:14;;;;;;;10.77;9.27;;;;;5.10;98553.00;;;;16808039;28;20430;-47
2022/12/08 00:26:18;;;;;;;12.33;10.30;;;;;5.50;98548.00;;;;16803654;22;20234;-48
2022/12/08 00:34:21;;;;;;;12.50;9.30;;;;;5.30;98536.00;;;;16774758;28;20297;-48
2022/12/08 00:42:25;;;;;;;9.73;8.47;;;;;5.10;98529.00;;;;16769357;28;20226;-47
2022/12/08 00:50:27;;;;;;;10.53;8.43;;;;;4.50;98535.00;;;;16771896;28;20427;-48
2022/12/08 00:58:31;;;;;;;9.47;8.43;;;;;4.30;98538.00;;;;16774128;28;20217;-48
2022/12/08 01:06:35;;;;;;;12.47;9.37;;;;;4.50;98527.00;;;;16764630;28;20244;-48
2022/12/08 01:14:39;;;;;;;10.30;9.20;;;;;4.20;98539.00;;;;16783713;28;20317;-48
2022/12/08 01:22:41;;;;;;;10.20;7.83;;;;;3.70;98553.00;;;;16782074;28;20303;-48
2022/12/08 01:30:45;;;;;;;12.33;9.27;;;;;3.60;98559.00;;;;16784428;28;20315;-47
2022/12/08 01:38:48;;;;;;;11.17;8.90;;;;;3.50;98553.00;;;;16785411;28;20312;-47
2022/12/08 01:46:52;;;;;;;10.80;8.80;;;;;3.40;98555.00;;;;16781903;28;20240;-48
2022/12/08 01:54:58;;;;;;;10.27;7.83;;;;;3.20;98564.00;;;;16782127;28;20227;-48
2022/12/08 02:03:04;;;;;;;10.80;8.40;;;;;3.10;98558.00;;;;16786146;28;20728;-48
2022/12/08 02:11:08;;;;;;;12.83;9.13;;;;;3.00;98528.00;;;;16786630;28;20300;-48
2022/12/08 02:19:40;;;;;;;13.80;9.00;;;;;2.90;98537.00;;;;16787096;28;20316;-47
2022/12/08 02:27:49;;;;;;;10.53;8.07;;;;;2.80;98527.00;;;;16783594;28;20233;-48
2022/12/08 02:35:58;;;;;;;11.90;9.10;;;;;3.30;98499.00;;;;16785759;28;20213;-47
2022/12/08 02:44:05;;;;;;;12.90;9.67;;;;;3.00;98497.00;;;;16768748;28;20223;-48
2022/12/08 02:52:38;;;;;;;11.90;9.00;;;;;2.90;98496.00;;;;16757750;28;20244;-47
2022/12/08 03:00:55;;;;;;;13.20;9.77;;;;;2.60;98503.00;;;;16765930;28;20235;-47
2022/12/08 03:09:01;;;;;;;12.00;10.00;;;;;2.90;98499.00;;;;16779885;28;20713;-48
2022/12/08 03:17:05;;;;;;;13.00;10.40;;;;;2.70;98492.00;;;;16780525;28;20217;-48
2022/12/08 03:25:09;;;;;;;13.00;8.90;;;;;2.30;98505.00;;;;16777919;28;20565;-48
2022/12/08 03:33:18;;;;;;;12.00;9.60;;;;;2.50;98481.00;;;;16781698;28;20201;-48
2022/12/08 03:41:21;;;;;;;15.80;10.60;;;;;2.70;98469.00;;;;16769636;28;20216;-48
2022/12/08 03:49:25;;;;;;;13.77;10.10;;;;;2.40;98468.00;;;;16775956;28;20731;-47
2022/12/08 03:57:27;;;;;;;14.80;9.53;;;;;2.50;98461.00;;;;16775530;28;20240;-47
2022/12/08 04:05:31;;;;;;;12.13;9.30;;;;;2.20;98467.00;;;;16778561;28;20795;-47
2022/12/08 04:13:34;;;;;;;13.60;10.10;;;;;2.40;98454.00;;;;16774255;28;20207;-48
2022/12/08 04:21:37;;;;;;;13.73;11.20;;;;;2.80;98442.00;;;;16777115;28;20236;-48
2022/12/08 04:29:40;;;;;;;13.17;10.50;;;;;2.10;98442.00;;;;16777099;28;20886;-48
2022/12/08 04:37:44;;;;;;;14.03;9.33;;;;;2.40;98450.00;;;;16764840;28;20225;-48
2022/12/08 04:45:47;;;;;;;13.30;10.30;;;;;2.30;98438.00;;;;16776894;28;20272;-48
2022/12/08 04:53:50;;;;;;;12.67;9.80;;;;;2.20;98427.00;;;;16767917;28;20225;-48
2022/12/08 05:01:53;;;;;;;13.50;10.10;;;;;2.40;98430.00;;;;16774048;28;20771;-48
2022/12/08 05:09:57;;;;;;;15.80;11.10;;;;;2.10;98426.00;;;;16776166;28;20718;-48
2022/12/08 05:17:59;;;;;;;19.70;14.10;;;;;2.20;98417.00;;;;16773516;28;20601;-47
2022/12/08 05:26:03;;;;;;;16.47;11.10;;;;;1.90;98419.00;;;;16775771;28;20600;-48
2022/12/08 05:34:05;;;;;;;17.07;12.37;;;;;2.10;98422.00;;;;16774662;28;20714;-48
2022/12/08 05:42:09;;;;;;;18.00;15.10;;;;;1.70;98429.00;;;;16774859;28;20573;-48
2022/12/08 05:50:12;;;;;;;15.60;12.80;;;;;2.00;98425.00;;;;16779126;28;20243;-48
2022/12/08 05:58:17;;;;;;;18.00;12.50;;;;;1.90;98416.00;;;;16746301;28;20310;-48
2022/12/08 06:06:20;;;;;;;14.53;12.30;;;;;1.70;98421.00;;;;16755910;28;20236;-47
2022/12/08 06:14:23;;;;;;;27.47;16.93;;;;;1.80;98418.00;;;;16766832;28;20359;-48
2022/12/08 06:22:26;;;;;;;23.50;18.10;;;;;1.90;98411.00;;;;16736639;28;20223;-47
2022/12/08 06:30:30;;;;;;;19.63;15.60;;;;;1.70;98421.00;;;;16739492;28;20238;-47
2022/12/08 06:38:33;;;;;;;32.70;14.40;;;;;2.20;98424.00;;;;16715297;22;20356;-79
2022/12/08 06:46:36;;;;;;;24.23;15.20;;;;;2.40;98412.00;;;;16668291;28;20780;-77
2022/12/08 06:54:39;;;;;;;15.80;11.77;;;;;2.00;98434.00;;;;16668951;28;20254;-77
2022/12/08 07:02:44;;;;;;;16.93;11.90;;;;;1.60;98424.00;;;;16679488;28;20782;-81
2022/12/08 07:10:46;;;;;;;17.00;12.77;;;;;1.70;98432.00;;;;16670469;28;20323;-79
2022/12/08 07:18:50;;;;;;;14.10;12.10;;;;;1.90;98431.00;;;;16687497;28;20666;-78
2022/12/08 07:26:53;;;;;;;16.63;12.60;;;;;1.80;98435.00;;;;16675120;28;20224;-81
2022/12/08 07:34:56;;;;;;;17.53;14.50;;;;;2.40;98427.00;;;;16685317;28;20775;-78
2022/12/08 07:42:59;;;;;;;21.53;15.87;;;;;3.20;98425.00;;;;16689022;28;20821;-79
2022/12/08 07:51:05;;;;;;;22.10;16.47;;;;;3.50;98410.00;;;;16702532;28;20221;-79
2022/12/08 07:59:08;;;;;;;20.00;14.83;;;;;3.50;98412.00;;;;16707259;28;20201;-82
2022/12/08 08:07:12;;;;;;;21.33;15.50;;;;;3.70;98404.00;;;;16673485;28;20307;-80
2022/12/08 08:15:16;;;;;;;25.90;17.10;;;;;3.60;98394.00;;;;16650188;28;20297;-78
2022/12/08 08:23:20;;;;;;;20.07;16.17;;;;;3.80;98385.00;;;;16674855;28;20222;-78
2022/12/08 08:31:25;;;;;;;20.97;14.40;;;;;4.10;98395.00;;;;16669651;28;20324;-79
2022/12/08 08:39:30;;;;;;;17.93;12.60;;;;;4.40;98392.00;;;;16665519;28;20367;-78
2022/12/08 08:47:33;;;;;;;16.43;13.00;;;;;4.40;98394.00;;;;16671366;28;20223;-79
2022/12/08 08:55:39;;;;;;;17.50;12.20;;;;;5.00;98378.00;;;;16676264;28;20247;-81
2022/12/08 09:03:42;;;;;;;16.60;12.50;;;;;5.30;98372.00;;;;16708374;28;20236;-77
2022/12/08 09:11:46;;;;;;;16.77;10.93;;;;;5.70;98365.00;;;;16700497;28;20216;-77
2022/12/08 09:19:48;;;;;;;15.77;12.33;;;;;6.10;98341.00;;;;16698798;28;20234;-77
2022/12/08 09:27:52;;;;;;;18.10;12.27;;;;;6.00;98342.00;;;;16676429;28;20226;-77
2022/12/08 09:35:55;;;;;;;12.13;10.17;;;;;6.10;98337.00;;;;16690094;28;20227;-77
2022/12/08 09:44:05;;;;;;;12.93;11.63;;;;;7.00;98327.00;;;;16714904;28;20224;-76
2022/12/08 09:52:20;;;;;;;12.50;10.87;;;;;7.30;98305.00;;;;16723501;28;20306;-78
2022/12/08 10:00:24;;;;;;;11.80;10.27;;;;;7.40;98306.00;;;;16713493;28;20212;-78
2022/12/08 10:08:31;;;;;;;10.70;9.10;;;;;7.40;98286.00;;;;16724569;28;20225;-78
2022/12/08 10:16:39;;;;;;;15.33;11.03;;;;;8.30;98267.00;;;;16723031;22;20363;-69
2022/12/08 10:24:46;;;;;;;10.37;8.87;;;;;8.70;98256.00;;;;16701888;28;20720;-69
2022/12/08 10:32:51;;;;;;;18.00;9.63;;;;;9.00;98247.00;;;;16692208;28;20260;-69
2022/12/08 10:40:57;;;;;;;9.90;8.90;;;;;9.30;98226.00;;;;16703406;28;20241;-69
2022/12/08 10:49:12;;;;;;;12.10;9.10;;;;;10.00;98226.00;;;;16711847;28;20214;-69
2022/12/08 10:57:21;;;;;;;9.67;8.17;;;;;11.20;98198.00;;;;16696731;28;20222;-67
2022/12/08 11:05:29;;;;;;;6.47;5.73;;;;;10.40;98196.00;;;;16700796;28;20760;-70
2022/12/08 11:13:32;;;;;;;7.50;6.60;;;;;10.90;98176.00;;;;16704312;28;20418;-72
2022/12/08 11:21:41;;;;;;;5.80;5.17;;;;;11.10;98156.00;;;;16704565;28;20305;-75
2022/12/08 11:29:44;;;;;;;7.93;6.10;;;;;8.80;98162.00;;;;16699571;28;20239;-70
2022/12/08 11:37:48;;;;;;;7.10;6.40;;;;;8.90;98161.00;;;;16707729;28;20200;-67
2022/12/08 11:45:56;;;;;;;5.83;5.23;;;;;9.40;98156.00;;;;16697008;28;20358;-69
2022/12/08 11:54:13;;;;;;;5.97;4.60;;;;;10.00;98140.00;;;;16685278;28;20228;-69
2022/12/08 12:02:17;;;;;;;7.60;6.00;;;;;11.20;98133.00;;;;16696886;28;20222;-67
2022/12/08 12:10:44;;;;;;;7.17;5.43;;;;;12.90;98114.00;;;;16678999;28;20213;-67
2022/12/08 12:18:49;;;;;;;5.20;4.70;;;;;13.80;98094.00;;;;16688039;28;20297;-68
2022/12/08 12:26:58;;;;;;;10.00;4.90;;;;;13.40;98090.00;;;;16710091;28;20226;-68
2022/12/08 12:35:01;;;;;;;5.33;4.80;;;;;13.70;98082.00;;;;16693626;28;20245;-68
2022/12/08 12:43:24;;;;;;;9.87;6.30;;;;;14.30;98075.00;;;;16703316;28;20835;-67
2022/12/08 12:51:43;;;;;;;4.90;4.40;;;;;14.30;98066.00;;;;16697159;28;20226;-68
2022/12/08 12:59:47;;;;;;;4.80;4.30;;;;;14.20;98047.00;;;;16688859;28;20308;-69
2022/12/08 13:07:53;;;;;;;6.67;6.00;;;;;12.90;98052.00;;;;16688845;28;20218;-69
2022/12/08 13:16:00;;;;;;;9.70;6.13;;;;;14.10;98055.00;;;;16681090;28;20385;-70
2022/12/08 13:24:16;;;;;;;4.53;4.10;;;;;14.10;98055.00;;;;16691372;28;20243;-69
2022/12/08 13:32:55;;;;;;;10.50;4.80;;;;;13.80;98058.00;;;;16692523;28;20302;-70
2022/12/08 13:40:58;;;;;;;5.17;4.53;;;;;12.40;98058.00;;;;16686218;28;20372;-68
2022/12/08 13:49:03;;;;;;;7.10;5.83;;;;;11.70;98071.00;;;;16677865;28;20237;-69
2022/12/08 13:57:08;;;;;;;4.97;4.47;;;;;11.30;98066.00;;;;16686926;28;20777;-69
2022/12/08 14:05:12;;;;;;;6.60;5.90;;;;;11.20;98068.00;;;;16693202;28;20273;-68
2022/12/08 14:13:15;;;;;;;27.90;18.17;;;;;10.50;98074.00;;;;16695648;28;20248;-68
2022/12/08 14:21:19;;;;;;;7.17;5.43;;;;;10.30;98084.00;;;;16709066;28;20267;-68
2022/12/08 14:29:37;;;;;;;7.53;5.70;;;;;10.20;98076.00;;;;16708381;28;20231;-68
2022/12/08 14:37:43;;;;;;;5.20;4.70;;;;;9.90;98087.00;;;;16688599;28;20253;-68
2022/12/08 14:45:53;;;;;;;5.53;4.40;;;;;9.90;98082.00;;;;16718286;28;20268;-68
2022/12/08 14:53:58;;;;;;;5.83;4.93;;;;;9.80;98075.00;;;;16718036;28;20299;-69
2022/12/08 15:02:21;;;;;;;6.77;5.30;;;;;8.40;98097.00;;;;16703220;28;20373;-68
2022/12/08 15:10:28;;;;;;;6.07;4.93;;;;;9.40;98086.00;;;;16701518;28;20218;-68
2022/12/08 15:18:35;;;;;;;5.17;4.67;;;;;9.50;98093.00;;;;16706020;28;20817;-68
2022/12/08 15:26:43;;;;;;;6.60;5.30;;;;;9.20;98093.00;;;;16684137;28;20226;-69
2022/12/08 15:34:46;;;;;;;6.70;5.50;;;;;9.20;98084.00;;;;16648834;28;20222;-68
2022/12/08 15:42:50;;;;;;;5.77;5.10;;;;;8.90;98082.00;;;;16681362;28;20244;-69
2022/12/08 15:50:54;;;;;;;6.10;4.90;;;;;9.10;98080.00;;;;16689714;28;20268;-68
2022/12/08 15:58:57;;;;;;;10.50;8.93;;;;;8.70;98078.00;;;;16685710;28;20335;-69
2022/12/08 16:07:00;;;;;;;20.80;12.60;;;;;8.60;98076.00;;;;16676038;22;20741;-47
2022/12/08 16:15:04;;;;;;;15.63;13.70;;;;;8.50;98073.00;;;;16684271;28;20218;-48
2022/12/08 16:23:07;;;;;;;60.57;29.53;;;;;8.30;98064.00;;;;16694675;28;20243;-48
2022/12/08 16:31:12;;;;;;;7.87;6.33;;;;;8.70;98062.00;;;;16671059;28;20320;-47
2022/12/08 16:39:14;;;;;;;10.73;9.57;;;;;8.70;98060.00;;;;16668752;28;20197;-47
2022/12/08 16:47:18;;;;;;;11.83;7.30;;;;;8.70;98052.00;;;;16680011;28;20305;-48
2022/12/08 16:55:20;;;;;;;10.27;8.13;;;;;8.70;98050.00;;;;16713602;28;20224;-48
2022/12/08 17:03:24;;;;;;;8.10;7.30;;;;;8.50;98063.00;;;;16718430;28;20252;-47
2022/12/08 17:11:31;;;;;;;8.77;7.40;;;;;8.30;98041.00;;;;16717274;28;20548;-47
2022/12/08 17:19:35;;;;;;;7.93;6.87;;;;;8.20;98051.00;;;;16714271;28;20218;-48
2022/12/08 17:27:38;;;;;;;6.63;6.00;;;;;8.30;98048.00;;;;16702431;28;20247;-47
2022/12/08 17:35:47;;;;;;;9.00;6.23;;;;;8.50;98059.00;;;;16705400;28;20252;-48
2022/12/08 17:43:50;;;;;;;8.10;6.97;;;;;8.60;98052.00;;;;16677166;28;20263;-47
2022/12/08 17:51:56;;;;;;;8.03;7.23;;;;;7.70;98051.00;;;;16686541;28;20251;-47
2022/12/08 17:59:58;;;;;;;9.33;7.00;;;;;8.10;98066.00;;;;16707113;28;20220;-47
2022/12/08 18:08:02;;;;;;;9.97;8.50;;;;;7.60;98070.00;;;;16699563;28;20227;-47
2022/12/08 18:16:05;;;;;;;10.20;8.77;;;;;8.10;98075.00;;;;16694158;28;20222;-48
2022/12/08 18:24:10;;;;;;;13.20;10.50;;;;;8.20;98068.00;;;;16691254;28;20324;-48
2022/12/08 18:32:12;;;;;;;25.67;14.70;;;;;8.40;98064.00;;;;16699331;28;20220;-47
2022/12/08 18:40:18;;;;;;;14.97;12.73;;;;;8.10;98059.00;;;;16693077;28;20209;-47
2022/12/08 18:48:21;;;;;;;9.87;8.50;;;;;8.10;98054.00;;;;16721494;28;20277;-47
2022/12/08 18:56:26;;;;;;;11.77;10.60;;;;;7.40;98060.00;;;;16727607;28;20243;-47
2022/12/08 19:04:28;;;;;;;11.57;7.43;;;;;7.00;98053.00;;;;16726967;28;20855;-47
2022/12/08 19:12:32;;;;;;;16.70;13.90;;;;;7.40;98046.00;;;;16730262;28;20221;-47
2022/12/08 19:20:35;;;;;;;9.30;7.50;;;;;7.90;98045.00;;;;16717037;28;20291;-47
2022/12/08 19:28:39;;;;;;;10.30;8.70;;;;;7.90;98042.00;;;;16720623;28;20238;-48
2022/12/08 19:36:42;;;;;;;12.83;8.27;;;;;7.70;98033.00;;;;16707341;28;20227;-48
2022/12/08 19:44:52;;;;;;;9.10;8.20;;;;;5.60;98057.00;;;;16681336;28;20383;-47
2022/12/08 19:52:55;;;;;;;16.67;13.00;;;;;5.80;98055.00;;;;16669947;28;20312;-47
2022/12/08 20:00:58;;;;;;;18.13;12.70;;;;;5.20;98050.00;;;;16694529;28;20212;-47
2022/12/08 20:09:01;;;;;;;9.20;7.27;;;;;4.20;98068.00;;;;16708187;28;20230;-46
2022/12/08 20:17:05;;;;;;;8.70;7.10;;;;;3.60;98082.00;;;;16673250;28;20453;-46
2022/12/08 20:25:08;;;;;;;13.30;10.97;;;;;3.40;98081.00;;;;16692616;28;20221;-47
2022/12/08 20:33:13;;;;;;;9.17;7.63;;;;;3.20;98090.00;;;;16693567;28;20220;-47
2022/12/08 20:41:16;;;;;;;12.70;9.10;;;;;3.20;98080.00;;;;16697166;28;20202;-48
2022/12/08 20:49:21;;;;;;;12.13;8.93;;;;;2.90;98080.00;;;;16691422;28;20229;-47
2022/12/08 20:57:23;;;;;;;12.30;8.73;;;;;2.90;98086.00;;;;16689129;28;20751;-47
2022/12/08 21:05:27;;;;;;;9.47;7.90;;;;;2.80;98088.00;;;;16688989;28;20218;-48
2022/12/08 21:13:29;;;;;;;10.80;8.13;;;;;2.50;98103.00;;;;16708368;28;20225;-47
2022/12/08 21:21:33;;;;;;;12.10;8.77;;;;;2.80;98084.00;;;;16726501;28;20266;-46
2022/12/08 21:29:36;;;;;;;12.50;8.20;;;;;2.60;98089.00;;;;16725411;28;20231;-48
2022/12/08 21:37:40;;;;;;;14.17;11.93;;;;;2.80;98069.00;;;;16706272;28;21113;-47
2022/12/08 21:45:43;;;;;;;14.40;9.80;;;;;2.40;98087.00;;;;16724182;28;20384;-47
2022/12/08 21:53:47;;;;;;;12.30;8.33;;;;;2.30;98096.00;;;;16725763;22;20238;-75
2022/12/08 22:01:49;;;;;;;11.30;9.93;;;;;2.40;98080.00;;;;16651315;28;20210;-75
2022/12/08 22:09:53;;;;;;;10.87;9.50;;;;;2.60;98075.00;;;;16633565;28;20257;-76
2022/12/08 22:17:56;;;;;;;11.60;9.10;;;;;2.10;98089.00;;;;16701507;22;20241;-47
2022/12/08 22:26:00;;;;;;;14.00;10.90;;;;;2.30;98085.00;;;;16733010;28;20629;-47
2022/12/08 22:34:03;;;;;;;13.40;10.37;;;;;1.90;98087.00;;;;16745091;28;20253;-46
2022/12/08 22:42:07;;;;;;;11.90;9.10;;;;;1.90;98081.00;;;;16737328;28;20284;-46
2022/12/08 22:50:10;;;;;;;14.13;11.17;;;;;2.00;98079.00;;;;16769841;28;20281;-46
2022/12/08 22:58:13;;;;;;;13.77;10.13;;;;;2.10;98073.00;;;;16740443;28;20312;-47
2022/12/08 23:06:16;;;;;;;12.37;10.80;;;;;2.30;98057.00;;;;16740664;28;20295;-48
2022/12/08 23:14:20;;;;;;;13.33;10.60;;;;;1.90;98057.00;;;;16768604;28;20220;-49
2022/12/08 23:22:22;;;;;;;24.03;17.00;;;;;1.90;98054.00;;;;16772515;28;20292;-50
2022/12/08 23:30:26;;;;;;;12.20;10.60;;;;;1.60;98051.00;;;;16746312;28;20911;-49
2022/12/08 23:38:29;;;;;;;12.90;9.90;;;;;1.60;98037.00;;;;16749884;28;20295;-50
2022/12/08 23:46:32;;;;;;;14.40;11.53;;;;;2.00;98021.00;;;;16739280;28;21404;-50
2022/12/08 23:54:35;;;;;;;16.07;12.20;;;;;1.60;98024.00;;;;16715952;28;20730;-49
